sensor_id;sensor_type;location;lat;lon;timestamp;P1;durP1;ratioP1;P2;durP2;ratioP2
48554;SDS011;34336;48.270;16.716;2023-11-19T00:01:58;23.65;;;14.02;;
48554;SDS011;34336;48.270;16.716;2023-11-19T00:04:25;17.45;;;12.43;;
48554;SDS011;34336;48.270;16.716;2023-11-19T00:06:51;19.02;;;12.20;;
48554;SDS011;34336;48.270;16.716;2023-11-19T00:09:18;18.05;;;12.07;;
48554;SDS011;34336;48.270;16.716;2023-11-19T00:11:45;18.15;;;12.50;;
48554;SDS011;34336;48.270;16.716;2023-11-19T00:14:20;18.65;;;13.07;;
48554;SDS011;34336;48.270;16.716;2023-11-19T00:16:46;19.17;;;12.65;;
48554;SDS011;34336;48.270;16.716;2023-11-19T00:19:13;18.70;;;11.45;;
48554;SDS011;34336;48.270;16.716;2023-11-19T00:21:40;16.92;;;11.75;;
48554;SDS011;34336;48.270;16.716;2023-11-19T00:24:07;20.42;;;12.00;;
48554;SDS011;34336;48.270;16.716;2023-11-19T00:26:34;23.10;;;14.45;;
48554;SDS011;34336;48.270;16.716;2023-11-19T00:29:01;22.52;;;14.57;;
48554;SDS011;34336;48.270;16.716;2023-11-19T00:31:28;21.92;;;13.80;;
48554;SDS011;34336;48.270;16.716;2023-11-19T00:33:57;22.90;;;14.57;;
48554;SDS011;34336;48.270;16.716;2023-11-19T00:36:24;22.10;;;13.60;;
48554;SDS011;34336;48.270;16.716;2023-11-19T00:38:51;24.13;;;14.90;;
48554;SDS011;34336;48.270;16.716;2023-11-19T00:41:21;21.75;;;12.73;;
48554;SDS011;34336;48.270;16.716;2023-11-19T00:43:48;22.95;;;14.23;;
48554;SDS011;34336;48.270;16.716;2023-11-19T00:46:15;19.73;;;12.93;;
48554;SDS011;34336;48.270;16.716;2023-11-19T00:48:42;20.48;;;13.43;;
48554;SDS011;34336;48.270;16.716;2023-11-19T00:51:11;20.70;;;13.48;;
48554;SDS011;34336;48.270;16.716;2023-11-19T00:53:38;17.67;;;12.50;;
48554;SDS011;34336;48.270;16.716;2023-11-19T00:56:05;20.58;;;13.10;;
48554;SDS011;34336;48.270;16.716;2023-11-19T00:58:32;22.48;;;14.25;;
48554;SDS011;34336;48.270;16.716;2023-11-19T01:00:59;20.88;;;13.52;;
48554;SDS011;34336;48.270;16.716;2023-11-19T01:03:26;18.08;;;12.32;;
48554;SDS011;34336;48.270;16.716;2023-11-19T01:05:53;17.27;;;11.90;;
48554;SDS011;34336;48.270;16.716;2023-11-19T01:08:20;16.20;;;11.50;;
48554;SDS011;34336;48.270;16.716;2023-11-19T01:10:46;17.83;;;11.10;;
48554;SDS011;34336;48.270;16.716;2023-11-19T01:13:14;15.55;;;11.10;;
48554;SDS011;34336;48.270;16.716;2023-11-19T01:15:40;14.50;;;10.57;;
48554;SDS011;34336;48.270;16.716;2023-11-19T01:18:08;14.88;;;9.75;;
48554;SDS011;34336;48.270;16.716;2023-11-19T01:20:36;16.23;;;10.57;;
48554;SDS011;34336;48.270;16.716;2023-11-19T01:23:03;16.20;;;10.27;;
48554;SDS011;34336;48.270;16.716;2023-11-19T01:25:30;13.50;;;10.10;;
48554;SDS011;34336;48.270;16.716;2023-11-19T01:27:56;13.95;;;9.70;;
48554;SDS011;34336;48.270;16.716;2023-11-19T01:30:24;16.75;;;9.77;;
48554;SDS011;34336;48.270;16.716;2023-11-19T01:32:52;18.17;;;11.00;;
48554;SDS011;34336;48.270;16.716;2023-11-19T01:35:18;14.98;;;10.27;;
48554;SDS011;34336;48.270;16.716;2023-11-19T01:37:45;16.80;;;10.73;;
48554;SDS011;34336;48.270;16.716;2023-11-19T01:40:12;15.73;;;10.63;;
48554;SDS011;34336;48.270;16.716;2023-11-19T01:42:39;15.07;;;10.50;;
48554;SDS011;34336;48.270;16.716;2023-11-19T01:45:07;17.25;;;10.38;;
48554;SDS011;34336;48.270;16.716;2023-11-19T01:47:36;13.68;;;9.88;;
48554;SDS011;34336;48.270;16.716;2023-11-19T01:50:03;13.38;;;9.90;;
48554;SDS011;34336;48.270;16.716;2023-11-19T01:52:34;13.90;;;9.60;;
48554;SDS011;34336;48.270;16.716;2023-11-19T01:55:05;14.17;;;9.50;;
48554;SDS011;34336;48.270;16.716;2023-11-19T01:57:35;12.68;;;9.30;;
48554;SDS011;34336;48.270;16.716;2023-11-19T02:00:04;15.20;;;9.95;;
48554;SDS011;34336;48.270;16.716;2023-11-19T02:02:39;13.95;;;9.60;;
48554;SDS011;34336;48.270;16.716;2023-11-19T02:05:07;13.20;;;9.75;;
48554;SDS011;34336;48.270;16.716;2023-11-19T02:07:34;13.32;;;9.70;;
48554;SDS011;34336;48.270;16.716;2023-11-19T02:10:01;14.40;;;9.32;;
48554;SDS011;34336;48.270;16.716;2023-11-19T02:12:28;14.40;;;9.57;;
48554;SDS011;34336;48.270;16.716;2023-11-19T02:14:56;13.38;;;9.20;;
48554;SDS011;34336;48.270;16.716;2023-11-19T02:17:26;13.55;;;9.30;;
48554;SDS011;34336;48.270;16.716;2023-11-19T02:19:54;14.13;;;9.90;;
48554;SDS011;34336;48.270;16.716;2023-11-19T02:22:21;12.18;;;8.68;;
48554;SDS011;34336;48.270;16.716;2023-11-19T02:24:47;11.05;;;8.68;;
48554;SDS011;34336;48.270;16.716;2023-11-19T02:28:01;14.88;;;9.07;;
48554;SDS011;34336;48.270;16.716;2023-11-19T02:30:23;11.57;;;8.52;;
48554;SDS011;34336;48.270;16.716;2023-11-19T02:32:54;11.07;;;8.63;;
48554;SDS011;34336;48.270;16.716;2023-11-19T02:35:24;12.00;;;8.50;;
48554;SDS011;34336;48.270;16.716;2023-11-19T02:37:53;11.65;;;8.50;;
48554;SDS011;34336;48.270;16.716;2023-11-19T02:40:20;11.77;;;8.85;;
48554;SDS011;34336;48.270;16.716;2023-11-19T02:42:49;11.82;;;8.57;;
48554;SDS011;34336;48.270;16.716;2023-11-19T02:45:16;12.15;;;8.57;;
48554;SDS011;34336;48.270;16.716;2023-11-19T02:47:43;10.73;;;8.35;;
48554;SDS011;34336;48.270;16.716;2023-11-19T02:50:11;12.00;;;8.70;;
48554;SDS011;34336;48.270;16.716;2023-11-19T02:52:41;12.52;;;8.52;;
48554;SDS011;34336;48.270;16.716;2023-11-19T02:55:10;11.73;;;8.57;;
48554;SDS011;34336;48.270;16.716;2023-11-19T02:57:39;16.38;;;9.13;;
48554;SDS011;34336;48.270;16.716;2023-11-19T03:00:14;13.65;;;8.70;;
48554;SDS011;34336;48.270;16.716;2023-11-19T03:02:44;12.48;;;8.95;;
48554;SDS011;34336;48.270;16.716;2023-11-19T03:05:20;14.98;;;8.50;;
48554;SDS011;34336;48.270;16.716;2023-11-19T03:07:48;12.02;;;8.90;;
48554;SDS011;34336;48.270;16.716;2023-11-19T03:10:15;11.88;;;8.35;;
48554;SDS011;34336;48.270;16.716;2023-11-19T03:12:42;12.73;;;8.95;;
48554;SDS011;34336;48.270;16.716;2023-11-19T03:15:10;14.18;;;8.85;;
48554;SDS011;34336;48.270;16.716;2023-11-19T03:17:43;12.18;;;8.65;;
48554;SDS011;34336;48.270;16.716;2023-11-19T03:20:11;11.38;;;9.18;;
48554;SDS011;34336;48.270;16.716;2023-11-19T03:22:41;12.40;;;9.07;;
48554;SDS011;34336;48.270;16.716;2023-11-19T03:25:08;13.52;;;9.05;;
48554;SDS011;34336;48.270;16.716;2023-11-19T03:27:36;12.13;;;8.30;;
48554;SDS011;34336;48.270;16.716;2023-11-19T03:30:08;12.40;;;9.07;;
48554;SDS011;34336;48.270;16.716;2023-11-19T03:32:38;13.40;;;8.55;;
48554;SDS011;34336;48.270;16.716;2023-11-19T03:35:05;10.85;;;8.80;;
48554;SDS011;34336;48.270;16.716;2023-11-19T03:37:36;13.25;;;9.00;;
48554;SDS011;34336;48.270;16.716;2023-11-19T03:40:03;12.35;;;8.38;;
48554;SDS011;34336;48.270;16.716;2023-11-19T03:42:31;13.35;;;8.50;;
48554;SDS011;34336;48.270;16.716;2023-11-19T03:44:58;13.45;;;9.10;;
48554;SDS011;34336;48.270;16.716;2023-11-19T03:47:25;11.82;;;8.55;;
48554;SDS011;34336;48.270;16.716;2023-11-19T03:49:52;13.25;;;9.52;;
48554;SDS011;34336;48.270;16.716;2023-11-19T03:52:19;11.73;;;8.68;;
48554;SDS011;34336;48.270;16.716;2023-11-19T03:54:46;12.40;;;9.00;;
48554;SDS011;34336;48.270;16.716;2023-11-19T03:57:13;12.02;;;9.18;;
48554;SDS011;34336;48.270;16.716;2023-11-19T03:59:42;12.02;;;9.43;;
48554;SDS011;34336;48.270;16.716;2023-11-19T04:02:09;14.10;;;9.25;;
48554;SDS011;34336;48.270;16.716;2023-11-19T04:04:36;12.77;;;9.52;;
48554;SDS011;34336;48.270;16.716;2023-11-19T04:07:05;12.52;;;10.15;;
48554;SDS011;34336;48.270;16.716;2023-11-19T04:09:32;11.77;;;9.15;;
48554;SDS011;34336;48.270;16.716;2023-11-19T04:12:04;12.93;;;9.32;;
48554;SDS011;34336;48.270;16.716;2023-11-19T04:14:31;10.30;;;8.23;;
48554;SDS011;34336;48.270;16.716;2023-11-19T04:16:58;16.02;;;9.98;;
48554;SDS011;34336;48.270;16.716;2023-11-19T04:19:24;14.43;;;9.65;;
48554;SDS011;34336;48.270;16.716;2023-11-19T04:21:51;13.93;;;9.90;;
48554;SDS011;34336;48.270;16.716;2023-11-19T04:24:18;12.63;;;9.02;;
48554;SDS011;34336;48.270;16.716;2023-11-19T04:26:45;12.63;;;9.57;;
48554;SDS011;34336;48.270;16.716;2023-11-19T04:29:13;15.32;;;10.27;;
48554;SDS011;34336;48.270;16.716;2023-11-19T04:31:41;15.20;;;10.90;;
48554;SDS011;34336;48.270;16.716;2023-11-19T04:34:08;13.70;;;10.13;;
48554;SDS011;34336;48.270;16.716;2023-11-19T04:36:35;15.77;;;9.55;;
48554;SDS011;34336;48.270;16.716;2023-11-19T04:39:04;15.15;;;10.30;;
48554;SDS011;34336;48.270;16.716;2023-11-19T04:41:51;13.27;;;10.02;;
48554;SDS011;34336;48.270;16.716;2023-11-19T04:44:19;13.93;;;9.80;;
48554;SDS011;34336;48.270;16.716;2023-11-19T04:46:47;15.73;;;10.65;;
48554;SDS011;34336;48.270;16.716;2023-11-19T04:49:14;16.35;;;10.93;;
48554;SDS011;34336;48.270;16.716;2023-11-19T04:51:41;14.80;;;10.05;;
48554;SDS011;34336;48.270;16.716;2023-11-19T04:54:08;14.68;;;10.30;;
48554;SDS011;34336;48.270;16.716;2023-11-19T04:56:35;14.18;;;9.93;;
48554;SDS011;34336;48.270;16.716;2023-11-19T04:59:03;15.23;;;10.35;;
48554;SDS011;34336;48.270;16.716;2023-11-19T05:01:32;14.98;;;10.20;;
48554;SDS011;34336;48.270;16.716;2023-11-19T05:03:59;16.80;;;11.02;;
48554;SDS011;34336;48.270;16.716;2023-11-19T05:06:27;17.10;;;11.45;;
48554;SDS011;34336;48.270;16.716;2023-11-19T05:08:59;16.42;;;11.10;;
48554;SDS011;34336;48.270;16.716;2023-11-19T05:11:35;17.83;;;11.43;;
48554;SDS011;34336;48.270;16.716;2023-11-19T05:14:02;15.00;;;10.73;;
48554;SDS011;34336;48.270;16.716;2023-11-19T05:16:32;16.60;;;11.05;;
48554;SDS011;34336;48.270;16.716;2023-11-19T05:18:59;15.95;;;10.48;;
48554;SDS011;34336;48.270;16.716;2023-11-19T05:21:26;17.63;;;10.55;;
48554;SDS011;34336;48.270;16.716;2023-11-19T05:23:53;17.55;;;10.95;;
48554;SDS011;34336;48.270;16.716;2023-11-19T05:26:21;15.38;;;10.60;;
48554;SDS011;34336;48.270;16.716;2023-11-19T05:28:48;16.48;;;10.05;;
48554;SDS011;34336;48.270;16.716;2023-11-19T05:31:16;17.00;;;10.90;;
48554;SDS011;34336;48.270;16.716;2023-11-19T05:33:44;16.23;;;10.85;;
48554;SDS011;34336;48.270;16.716;2023-11-19T05:36:11;17.33;;;10.55;;
48554;SDS011;34336;48.270;16.716;2023-11-19T05:38:41;14.60;;;10.32;;
48554;SDS011;34336;48.270;16.716;2023-11-19T05:41:08;17.45;;;10.65;;
48554;SDS011;34336;48.270;16.716;2023-11-19T05:43:34;14.98;;;9.88;;
48554;SDS011;34336;48.270;16.716;2023-11-19T05:46:02;23.50;;;16.23;;
48554;SDS011;34336;48.270;16.716;2023-11-19T05:48:29;17.25;;;11.57;;
48554;SDS011;34336;48.270;16.716;2023-11-19T05:50:55;22.27;;;14.63;;
48554;SDS011;34336;48.270;16.716;2023-11-19T05:53:22;17.02;;;11.00;;
48554;SDS011;34336;48.270;16.716;2023-11-19T05:55:49;17.77;;;11.65;;
48554;SDS011;34336;48.270;16.716;2023-11-19T05:58:24;14.82;;;9.75;;
48554;SDS011;34336;48.270;16.716;2023-11-19T06:00:53;17.27;;;10.57;;
48554;SDS011;34336;48.270;16.716;2023-11-19T06:03:19;14.65;;;10.48;;
48554;SDS011;34336;48.270;16.716;2023-11-19T06:05:48;20.85;;;10.70;;
48554;SDS011;34336;48.270;16.716;2023-11-19T06:08:16;15.65;;;10.43;;
48554;SDS011;34336;48.270;16.716;2023-11-19T06:10:43;15.90;;;10.02;;
48554;SDS011;34336;48.270;16.716;2023-11-19T06:13:13;15.05;;;9.68;;
48554;SDS011;34336;48.270;16.716;2023-11-19T06:15:42;13.48;;;9.57;;
48554;SDS011;34336;48.270;16.716;2023-11-19T06:18:09;15.18;;;9.82;;
48554;SDS011;34336;48.270;16.716;2023-11-19T06:20:38;16.50;;;10.48;;
48554;SDS011;34336;48.270;16.716;2023-11-19T06:23:08;13.50;;;9.45;;
48554;SDS011;34336;48.270;16.716;2023-11-19T06:25:35;15.98;;;10.15;;
48554;SDS011;34336;48.270;16.716;2023-11-19T06:28:02;13.77;;;10.23;;
48554;SDS011;34336;48.270;16.716;2023-11-19T06:30:29;14.98;;;10.38;;
48554;SDS011;34336;48.270;16.716;2023-11-19T06:32:58;15.20;;;10.10;;
48554;SDS011;34336;48.270;16.716;2023-11-19T06:35:26;16.40;;;10.27;;
48554;SDS011;34336;48.270;16.716;2023-11-19T06:37:55;14.90;;;10.32;;
48554;SDS011;34336;48.270;16.716;2023-11-19T06:40:22;14.77;;;10.07;;
48554;SDS011;34336;48.270;16.716;2023-11-19T06:42:49;15.85;;;9.98;;
48554;SDS011;34336;48.270;16.716;2023-11-19T06:45:16;13.98;;;10.18;;
48554;SDS011;34336;48.270;16.716;2023-11-19T06:47:43;14.57;;;10.25;;
48554;SDS011;34336;48.270;16.716;2023-11-19T06:50:10;15.63;;;11.07;;
48554;SDS011;34336;48.270;16.716;2023-11-19T06:52:38;15.73;;;11.02;;
48554;SDS011;34336;48.270;16.716;2023-11-19T06:55:06;15.73;;;10.55;;
48554;SDS011;34336;48.270;16.716;2023-11-19T06:57:34;14.40;;;9.30;;
48554;SDS011;34336;48.270;16.716;2023-11-19T07:00:01;14.95;;;10.30;;
48554;SDS011;34336;48.270;16.716;2023-11-19T07:02:28;16.05;;;10.52;;
48554;SDS011;34336;48.270;16.716;2023-11-19T07:04:55;15.57;;;10.95;;
48554;SDS011;34336;48.270;16.716;2023-11-19T07:07:22;14.65;;;10.18;;
48554;SDS011;34336;48.270;16.716;2023-11-19T07:09:48;16.95;;;10.70;;
48554;SDS011;34336;48.270;16.716;2023-11-19T07:12:15;16.02;;;10.38;;
48554;SDS011;34336;48.270;16.716;2023-11-19T07:14:42;15.23;;;11.35;;
48554;SDS011;34336;48.270;16.716;2023-11-19T07:17:09;14.95;;;10.25;;
48554;SDS011;34336;48.270;16.716;2023-11-19T07:19:36;16.58;;;10.70;;
48554;SDS011;34336;48.270;16.716;2023-11-19T07:22:05;16.48;;;10.40;;
48554;SDS011;34336;48.270;16.716;2023-11-19T07:24:32;16.40;;;11.13;;
48554;SDS011;34336;48.270;16.716;2023-11-19T07:26:59;16.65;;;10.43;;
48554;SDS011;34336;48.270;16.716;2023-11-19T07:29:27;16.92;;;10.88;;
48554;SDS011;34336;48.270;16.716;2023-11-19T07:31:55;18.83;;;11.65;;
48554;SDS011;34336;48.270;16.716;2023-11-19T07:34:23;18.02;;;11.00;;
48554;SDS011;34336;48.270;16.716;2023-11-19T07:36:51;17.75;;;11.43;;
48554;SDS011;34336;48.270;16.716;2023-11-19T07:39:19;17.05;;;10.75;;
48554;SDS011;34336;48.270;16.716;2023-11-19T07:41:47;15.60;;;10.65;;
48554;SDS011;34336;48.270;16.716;2023-11-19T07:44:14;17.50;;;10.90;;
48554;SDS011;34336;48.270;16.716;2023-11-19T07:46:41;16.70;;;10.27;;
48554;SDS011;34336;48.270;16.716;2023-11-19T07:49:08;16.98;;;10.60;;
48554;SDS011;34336;48.270;16.716;2023-11-19T07:51:36;18.88;;;10.70;;
48554;SDS011;34336;48.270;16.716;2023-11-19T07:54:03;18.77;;;11.40;;
48554;SDS011;34336;48.270;16.716;2023-11-19T07:56:31;17.70;;;10.85;;
48554;SDS011;34336;48.270;16.716;2023-11-19T07:59:01;18.92;;;11.25;;
48554;SDS011;34336;48.270;16.716;2023-11-19T08:01:28;16.58;;;10.82;;
48554;SDS011;34336;48.270;16.716;2023-11-19T08:03:55;17.10;;;11.13;;
48554;SDS011;34336;48.270;16.716;2023-11-19T08:06:25;18.88;;;11.32;;
48554;SDS011;34336;48.270;16.716;2023-11-19T08:08:52;18.05;;;11.23;;
48554;SDS011;34336;48.270;16.716;2023-11-19T08:11:19;20.40;;;13.15;;
48554;SDS011;34336;48.270;16.716;2023-11-19T08:13:46;18.48;;;12.23;;
48554;SDS011;34336;48.270;16.716;2023-11-19T08:16:14;20.15;;;12.93;;
48554;SDS011;34336;48.270;16.716;2023-11-19T08:18:42;17.77;;;10.80;;
48554;SDS011;34336;48.270;16.716;2023-11-19T08:21:09;20.52;;;12.63;;
48554;SDS011;34336;48.270;16.716;2023-11-19T08:23:37;15.85;;;10.50;;
48554;SDS011;34336;48.270;16.716;2023-11-19T08:26:05;18.48;;;12.35;;
48554;SDS011;34336;48.270;16.716;2023-11-19T08:28:32;16.30;;;10.60;;
48554;SDS011;34336;48.270;16.716;2023-11-19T08:31:01;16.27;;;10.73;;
48554;SDS011;34336;48.270;16.716;2023-11-19T08:33:30;13.10;;;9.80;;
48554;SDS011;34336;48.270;16.716;2023-11-19T08:35:57;15.07;;;10.55;;
48554;SDS011;34336;48.270;16.716;2023-11-19T08:38:25;15.00;;;9.57;;
48554;SDS011;34336;48.270;16.716;2023-11-19T08:40:54;14.63;;;10.25;;
48554;SDS011;34336;48.270;16.716;2023-11-19T08:43:26;12.77;;;9.10;;
48554;SDS011;34336;48.270;16.716;2023-11-19T08:45:53;12.63;;;9.25;;
48554;SDS011;34336;48.270;16.716;2023-11-19T08:48:20;15.50;;;10.00;;
48554;SDS011;34336;48.270;16.716;2023-11-19T08:50:47;14.95;;;10.57;;
48554;SDS011;34336;48.270;16.716;2023-11-19T08:53:14;13.48;;;9.25;;
48554;SDS011;34336;48.270;16.716;2023-11-19T08:55:41;13.95;;;9.48;;
48554;SDS011;34336;48.270;16.716;2023-11-19T08:58:08;12.63;;;8.98;;
48554;SDS011;34336;48.270;16.716;2023-11-19T09:00:35;13.82;;;8.88;;
48554;SDS011;34336;48.270;16.716;2023-11-19T09:03:02;14.00;;;9.85;;
48554;SDS011;34336;48.270;16.716;2023-11-19T09:05:30;12.85;;;8.73;;
48554;SDS011;34336;48.270;16.716;2023-11-19T09:07:57;14.60;;;9.40;;
48554;SDS011;34336;48.270;16.716;2023-11-19T09:10:24;14.60;;;9.35;;
48554;SDS011;34336;48.270;16.716;2023-11-19T09:12:51;14.95;;;9.90;;
48554;SDS011;34336;48.270;16.716;2023-11-19T09:15:20;13.68;;;9.55;;
48554;SDS011;34336;48.270;16.716;2023-11-19T09:17:46;13.77;;;9.45;;
48554;SDS011;34336;48.270;16.716;2023-11-19T09:20:13;15.88;;;10.32;;
48554;SDS011;34336;48.270;16.716;2023-11-19T09:22:42;13.38;;;9.18;;
48554;SDS011;34336;48.270;16.716;2023-11-19T09:25:09;12.85;;;8.70;;
48554;SDS011;34336;48.270;16.716;2023-11-19T09:27:36;12.43;;;8.85;;
48554;SDS011;34336;48.270;16.716;2023-11-19T09:30:03;12.82;;;9.10;;
48554;SDS011;34336;48.270;16.716;2023-11-19T09:32:31;14.63;;;9.45;;
48554;SDS011;34336;48.270;16.716;2023-11-19T09:34:58;13.73;;;9.45;;
48554;SDS011;34336;48.270;16.716;2023-11-19T09:37:25;12.88;;;9.70;;
48554;SDS011;34336;48.270;16.716;2023-11-19T09:39:52;14.00;;;9.93;;
48554;SDS011;34336;48.270;16.716;2023-11-19T09:42:19;12.85;;;8.65;;
48554;SDS011;34336;48.270;16.716;2023-11-19T09:44:47;12.02;;;9.13;;
48554;SDS011;34336;48.270;16.716;2023-11-19T09:47:16;14.90;;;9.98;;
48554;SDS011;34336;48.270;16.716;2023-11-19T09:49:43;11.93;;;8.57;;
48554;SDS011;34336;48.270;16.716;2023-11-19T09:52:10;11.52;;;8.48;;
48554;SDS011;34336;48.270;16.716;2023-11-19T09:54:37;11.93;;;8.68;;
48554;SDS011;34336;48.270;16.716;2023-11-19T09:57:04;12.20;;;8.85;;
48554;SDS011;34336;48.270;16.716;2023-11-19T09:59:34;13.63;;;9.45;;
48554;SDS011;34336;48.270;16.716;2023-11-19T10:02:00;13.60;;;9.65;;
48554;SDS011;34336;48.270;16.716;2023-11-19T10:04:29;12.05;;;8.73;;
48554;SDS011;34336;48.270;16.716;2023-11-19T10:06:57;13.02;;;9.65;;
48554;SDS011;34336;48.270;16.716;2023-11-19T10:09:24;11.30;;;8.77;;
48554;SDS011;34336;48.270;16.716;2023-11-19T10:11:51;15.05;;;9.15;;
48554;SDS011;34336;48.270;16.716;2023-11-19T10:14:19;12.68;;;9.02;;
48554;SDS011;34336;48.270;16.716;2023-11-19T10:16:49;11.90;;;8.93;;
48554;SDS011;34336;48.270;16.716;2023-11-19T10:19:19;11.68;;;8.35;;
48554;SDS011;34336;48.270;16.716;2023-11-19T10:21:49;12.55;;;9.13;;
48554;SDS011;34336;48.270;16.716;2023-11-19T10:24:16;10.63;;;8.18;;
48554;SDS011;34336;48.270;16.716;2023-11-19T10:26:57;10.68;;;8.27;;
48554;SDS011;34336;48.270;16.716;2023-11-19T10:29:24;11.02;;;8.70;;
48554;SDS011;34336;48.270;16.716;2023-11-19T10:31:57;11.48;;;8.25;;
48554;SDS011;34336;48.270;16.716;2023-11-19T10:34:45;11.25;;;8.98;;
48554;SDS011;34336;48.270;16.716;2023-11-19T10:37:27;15.82;;;10.02;;
48554;SDS011;34336;48.270;16.716;2023-11-19T10:39:56;13.77;;;9.73;;
48554;SDS011;34336;48.270;16.716;2023-11-19T10:42:23;10.82;;;8.77;;
48554;SDS011;34336;48.270;16.716;2023-11-19T10:44:50;13.55;;;9.20;;
48554;SDS011;34336;48.270;16.716;2023-11-19T10:47:18;13.15;;;9.52;;
48554;SDS011;34336;48.270;16.716;2023-11-19T10:50:02;11.88;;;9.00;;
48554;SDS011;34336;48.270;16.716;2023-11-19T10:52:29;12.77;;;9.35;;
48554;SDS011;34336;48.270;16.716;2023-11-19T10:54:56;15.02;;;10.13;;
48554;SDS011;34336;48.270;16.716;2023-11-19T10:57:28;13.50;;;9.95;;
48554;SDS011;34336;48.270;16.716;2023-11-19T10:59:59;12.55;;;9.70;;
48554;SDS011;34336;48.270;16.716;2023-11-19T11:02:28;14.25;;;10.20;;
48554;SDS011;34336;48.270;16.716;2023-11-19T11:05:02;15.48;;;9.82;;
48554;SDS011;34336;48.270;16.716;2023-11-19T11:07:29;13.32;;;9.82;;
48554;SDS011;34336;48.270;16.716;2023-11-19T11:10:07;14.40;;;9.73;;
48554;SDS011;34336;48.270;16.716;2023-11-19T11:12:36;15.35;;;10.20;;
48554;SDS011;34336;48.270;16.716;2023-11-19T11:15:05;12.68;;;10.00;;
48554;SDS011;34336;48.270;16.716;2023-11-19T11:17:33;13.85;;;9.40;;
48554;SDS011;34336;48.270;16.716;2023-11-19T11:20:01;14.23;;;10.07;;
48554;SDS011;34336;48.270;16.716;2023-11-19T11:22:29;13.45;;;10.52;;
48554;SDS011;34336;48.270;16.716;2023-11-19T11:27:57;12.88;;;9.48;;
48554;SDS011;34336;48.270;16.716;2023-11-19T11:30:44;13.55;;;9.98;;
48554;SDS011;34336;48.270;16.716;2023-11-19T11:33:26;15.95;;;10.00;;
48554;SDS011;34336;48.270;16.716;2023-11-19T11:36:11;12.85;;;9.88;;
48554;SDS011;34336;48.270;16.716;2023-11-19T11:38:44;14.23;;;9.70;;
48554;SDS011;34336;48.270;16.716;2023-11-19T11:41:15;15.05;;;10.73;;
48554;SDS011;34336;48.270;16.716;2023-11-19T11:43:47;13.85;;;10.00;;
48554;SDS011;34336;48.270;16.716;2023-11-19T11:54:09;14.15;;;9.98;;
48554;SDS011;34336;48.270;16.716;2023-11-19T11:56:37;15.10;;;10.57;;
48554;SDS011;34336;48.270;16.716;2023-11-19T11:59:07;14.55;;;10.93;;
48554;SDS011;34336;48.270;16.716;2023-11-19T12:01:57;15.07;;;10.77;;
48554;SDS011;34336;48.270;16.716;2023-11-19T12:04:27;14.45;;;10.18;;
48554;SDS011;34336;48.270;16.716;2023-11-19T12:07:05;14.68;;;10.27;;
48554;SDS011;34336;48.270;16.716;2023-11-19T12:09:33;16.48;;;10.68;;
48554;SDS011;34336;48.270;16.716;2023-11-19T12:20:03;14.10;;;10.85;;
48554;SDS011;34336;48.270;16.716;2023-11-19T12:22:38;15.23;;;10.82;;
48554;SDS011;34336;48.270;16.716;2023-11-19T12:25:07;14.35;;;10.25;;
48554;SDS011;34336;48.270;16.716;2023-11-19T12:27:42;16.63;;;12.07;;
48554;SDS011;34336;48.270;16.716;2023-11-19T12:30:10;17.27;;;12.05;;
48554;SDS011;34336;48.270;16.716;2023-11-19T12:32:41;15.50;;;11.43;;
48554;SDS011;34336;48.270;16.716;2023-11-19T12:35:09;16.20;;;11.17;;
48554;SDS011;34336;48.270;16.716;2023-11-19T12:37:43;17.23;;;11.43;;
48554;SDS011;34336;48.270;16.716;2023-11-19T12:40:12;16.42;;;12.32;;
48554;SDS011;34336;48.270;16.716;2023-11-19T12:42:44;17.25;;;11.60;;
48554;SDS011;34336;48.270;16.716;2023-11-19T12:45:12;15.25;;;11.13;;
48554;SDS011;34336;48.270;16.716;2023-11-19T12:47:40;15.20;;;10.88;;
48554;SDS011;34336;48.270;16.716;2023-11-19T12:50:07;16.05;;;11.43;;
48554;SDS011;34336;48.270;16.716;2023-11-19T12:52:38;16.00;;;11.52;;
48554;SDS011;34336;48.270;16.716;2023-11-19T12:55:23;15.27;;;11.55;;
48554;SDS011;34336;48.270;16.716;2023-11-19T12:57:57;14.48;;;10.50;;
48554;SDS011;34336;48.270;16.716;2023-11-19T13:00:25;14.65;;;11.02;;
48554;SDS011;34336;48.270;16.716;2023-11-19T13:02:54;15.45;;;10.82;;
48554;SDS011;34336;48.270;16.716;2023-11-19T13:10:33;17.77;;;11.05;;
48554;SDS011;34336;48.270;16.716;2023-11-19T13:13:32;14.93;;;10.88;;
48554;SDS011;34336;48.270;16.716;2023-11-19T13:16:03;16.83;;;11.70;;
48554;SDS011;34336;48.270;16.716;2023-11-19T13:18:32;14.80;;;11.63;;
48554;SDS011;34336;48.270;16.716;2023-11-19T13:21:01;15.18;;;11.80;;
48554;SDS011;34336;48.270;16.716;2023-11-19T13:23:29;22.70;;;20.02;;
48554;SDS011;34336;48.270;16.716;2023-11-19T13:25:56;37.03;;;30.85;;
48554;SDS011;34336;48.270;16.716;2023-11-19T13:28:23;18.40;;;15.18;;
48554;SDS011;34336;48.270;16.716;2023-11-19T13:30:50;18.13;;;11.45;;
48554;SDS011;34336;48.270;16.716;2023-11-19T13:33:17;16.45;;;11.57;;
48554;SDS011;34336;48.270;16.716;2023-11-19T13:35:44;19.67;;;17.42;;
48554;SDS011;34336;48.270;16.716;2023-11-19T13:38:11;15.25;;;11.85;;
48554;SDS011;34336;48.270;16.716;2023-11-19T13:40:38;17.48;;;12.45;;
48554;SDS011;34336;48.270;16.716;2023-11-19T13:43:05;14.93;;;11.13;;
48554;SDS011;34336;48.270;16.716;2023-11-19T13:45:32;15.43;;;10.82;;
48554;SDS011;34336;48.270;16.716;2023-11-19T13:47:59;14.48;;;11.20;;
48554;SDS011;34336;48.270;16.716;2023-11-19T13:50:26;14.63;;;11.32;;
48554;SDS011;34336;48.270;16.716;2023-11-19T13:52:52;16.65;;;11.05;;
48554;SDS011;34336;48.270;16.716;2023-11-19T13:55:19;16.13;;;11.27;;
48554;SDS011;34336;48.270;16.716;2023-11-19T13:57:46;17.25;;;11.70;;
48554;SDS011;34336;48.270;16.716;2023-11-19T14:00:13;16.25;;;11.75;;
48554;SDS011;34336;48.270;16.716;2023-11-19T14:02:43;15.73;;;11.02;;
48554;SDS011;34336;48.270;16.716;2023-11-19T14:05:10;18.48;;;12.30;;
48554;SDS011;34336;48.270;16.716;2023-11-19T14:07:37;17.02;;;11.45;;
48554;SDS011;34336;48.270;16.716;2023-11-19T14:10:06;20.50;;;13.93;;
48554;SDS011;34336;48.270;16.716;2023-11-19T14:12:33;23.25;;;17.42;;
48554;SDS011;34336;48.270;16.716;2023-11-19T14:15:00;20.35;;;12.40;;
48554;SDS011;34336;48.270;16.716;2023-11-19T14:17:27;17.35;;;11.15;;
48554;SDS011;34336;48.270;16.716;2023-11-19T14:19:54;17.25;;;12.07;;
48554;SDS011;34336;48.270;16.716;2023-11-19T14:22:21;16.75;;;11.70;;
48554;SDS011;34336;48.270;16.716;2023-11-19T14:24:48;17.13;;;12.50;;
48554;SDS011;34336;48.270;16.716;2023-11-19T14:27:14;17.95;;;12.77;;
48554;SDS011;34336;48.270;16.716;2023-11-19T14:29:44;19.23;;;12.38;;
48554;SDS011;34336;48.270;16.716;2023-11-19T14:32:13;20.88;;;12.82;;
48554;SDS011;34336;48.270;16.716;2023-11-19T14:34:40;18.98;;;12.75;;
48554;SDS011;34336;48.270;16.716;2023-11-19T14:37:07;18.27;;;13.50;;
48554;SDS011;34336;48.270;16.716;2023-11-19T14:39:34;20.13;;;14.10;;
48554;SDS011;34336;48.270;16.716;2023-11-19T14:42:00;21.25;;;13.93;;
48554;SDS011;34336;48.270;16.716;2023-11-19T14:44:31;19.10;;;13.57;;
48554;SDS011;34336;48.270;16.716;2023-11-19T14:46:58;19.13;;;13.05;;